Wetterdaten: Woche 18.01.16 - 24.01.16 (KW3)
Datum Zeit Temp. A. Feuchte A. Luftdruck Regen Wind Richtung Sonnenschein ET UV Solar Taupunkt Windchill Windben Empfang
18.01.2016 00:00 -2,8 C 87 % 1023,9 hPa 0,0 l/m 7,8 km/h (2 Bft) W 0,00 h 0,000 mm 0,0 UV-I 0 W/m -4,6 C -4,4 C 14,9 km/h (3 Bft) 98,10 %
18.01.2016 01:00 -3,1 C 88 % 1023,7 hPa 0,0 l/m 7,9 km/h (2 Bft) W-SW 0,00 h 0,000 mm 0,0 UV-I 0 W/m -4,8 C -4,8 C 14,8 km/h (3 Bft) 99,50 %
18.01.2016 02:00 -3,3 C 88 % 1023,8 hPa 0,0 l/m 5,2 km/h (1 Bft) W-SW 0,00 h 0,000 mm 0,0 UV-I 0 W/m -5,0 C -3,4 C 9,8 km/h (2 Bft) 98,19 %
18.01.2016 03:00 -3,8 C 89 % 1023,7 hPa 0,0 l/m 6,9 km/h (2 Bft) W-SW 0,00 h 0,000 mm 0,0 UV-I 0 W/m -5,3 C -4,6 C 11,6 km/h (2 Bft) 98,87 %
18.01.2016 04:00 -4,6 C 91 % 1023,6 hPa 0,0 l/m 6,5 km/h (2 Bft) SW 0,00 h 0,000 mm 0,0 UV-I 0 W/m -5,9 C -5,0 C 10,8 km/h (2 Bft) 98,41 %
18.01.2016 05:00 -5,0 C 91 % 1023,7 hPa 0,0 l/m 6,5 km/h (2 Bft) W-SW 0,00 h 0,000 mm 0,0 UV-I 0 W/m -6,2 C -5,4 C 11,2 km/h (2 Bft) 98,43 %
18.01.2016 06:00 -6,0 C 92 % 1023,6 hPa 0,0 l/m 2,6 km/h (1 Bft) W-SW 0,00 h 0,000 mm 0,0 UV-I 0 W/m -7,1 C -6,0 C 4,4 km/h (1 Bft) 98,50 %
18.01.2016 07:00 -7,2 C 94 % 1023,6 hPa 0,0 l/m 3,1 km/h (1 Bft) S-SW 0,00 h 0,000 mm 0,0 UV-I 4 W/m -8,0 C -7,2 C 4,7 km/h (1 Bft) 98,22 %
18.01.2016 08:00 -7,3 C 94 % 1023,7 hPa 0,0 l/m 1,9 km/h (1 Bft) S 0,25 h 0,000 mm 0,0 UV-I 42 W/m -8,0 C -7,3 C 3,9 km/h (1 Bft) 98,82 %
18.01.2016 09:00 -6,1 C 92 % 1023,6 hPa 0,0 l/m 2,0 km/h (1 Bft) S 1,00 h 0,000 mm 0,0 UV-I 162 W/m -7,2 C -6,1 C 4,1 km/h (1 Bft) 98,71 %
18.01.2016 10:00 -4,8 C 89 % 1023,3 hPa 0,0 l/m 1,4 km/h (1 Bft) SW 1,00 h 0,051 mm 0,5 UV-I 255 W/m -6,4 C -4,8 C 3,6 km/h (1 Bft) 98,58 %
18.01.2016 11:00 -4,1 C 86 % 1022,5 hPa 0,0 l/m 1,2 km/h (1 Bft) N-NO 0,67 h 0,076 mm 0,7 UV-I 255 W/m -6,1 C -4,1 C 3,2 km/h (1 Bft) 98,58 %
18.01.2016 12:00 -3,4 C 84 % 1021,5 hPa 0,0 l/m 3,4 km/h (1 Bft) NO 0,75 h 0,076 mm 0,7 UV-I 267 W/m -5,7 C -3,4 C 6,8 km/h (2 Bft) 98,63 %
18.01.2016 13:00 -2,9 C 83 % 1020,3 hPa 0,0 l/m 5,8 km/h (2 Bft) NO 1,00 h 0,076 mm 0,6 UV-I 304 W/m -5,4 C -3,3 C 9,9 km/h (2 Bft) 98,68 %
18.01.2016 14:00 -2,6 C 80 % 1019,5 hPa 0,0 l/m 9,1 km/h (2 Bft) NO 1,00 h 0,102 mm 0,4 UV-I 218 W/m -5,6 C -5,4 C 14,6 km/h (3 Bft) 98,28 %
18.01.2016 15:00 -2,9 C 80 % 1019,1 hPa 0,2 l/m 9,7 km/h (2 Bft) O-NO 0,83 h 0,076 mm 0,0 UV-I 99 W/m -5,8 C -6,3 C 15,2 km/h (3 Bft) 99,43 %
18.01.2016 16:00 -3,8 C 82 % 1018,6 hPa 0,0 l/m 7,7 km/h (2 Bft) O-NO 0,08 h 0,051 mm 0,0 UV-I 15 W/m -6,4 C -5,4 C 12,5 km/h (3 Bft) 98,08 %
18.01.2016 17:00 -4,9 C 86 % 1018,4 hPa 0,0 l/m 4,7 km/h (1 Bft) O-NO 0,00 h 0,000 mm 0,0 UV-I 0 W/m -6,9 C -5,0 C 7,6 km/h (2 Bft) 99,20 %
18.01.2016 18:00 -5,8 C 88 % 1018,4 hPa 0,0 l/m 4,7 km/h (1 Bft) NO 0,00 h 0,000 mm 0,0 UV-I 0 W/m -7,4 C -6,0 C 7,6 km/h (2 Bft) 97,79 %
18.01.2016 19:00 -5,8 C 88 % 1018,2 hPa 0,0 l/m 12,2 km/h (2 Bft) O-NO 0,00 h 0,000 mm 0,0 UV-I 0 W/m -7,4 C -11,8 C 19,3 km/h (3 Bft) 99,09 %
18.01.2016 20:00 -6,1 C 89 % 1018,3 hPa 0,0 l/m 8,5 km/h (2 Bft) O-NO 0,00 h 0,000 mm 0,0 UV-I 0 W/m -7,7 C -8,8 C 13,9 km/h (3 Bft) 97,79 %
18.01.2016 21:00 -7,2 C 91 % 1018,3 hPa 0,0 l/m 5,0 km/h (1 Bft) O-NO 0,00 h 0,000 mm 0,0 UV-I 0 W/m -8,4 C -7,2 C 7,9 km/h (2 Bft) 99,37 %
18.01.2016 22:00 -7,6 C 92 % 1018,2 hPa 0,0 l/m 4,9 km/h (1 Bft) O-NO 0,00 h 0,000 mm 0,0 UV-I 0 W/m -8,6 C -7,6 C 7,5 km/h (2 Bft) 97,98 %
18.01.2016 23:00 -8,0 C 93 % 1018,2 hPa 0,0 l/m 4,8 km/h (1 Bft) O-NO 0,00 h 0,000 mm 0,0 UV-I 0 W/m -8,9 C -8,1 C 7,4 km/h (2 Bft) 99,22 %
19.01.2016 00:00 -8,2 C 92 % 1018,1 hPa 0,0 l/m 5,9 km/h (2 Bft) O-NO 0,00 h 0,000 mm 0,0 UV-I 0 W/m -9,2 C -8,3 C 9,7 km/h (2 Bft) 97,86 %
19.01.2016 01:00 -8,8 C 92 % 1017,8 hPa 0,0 l/m 2,9 km/h (1 Bft) O 0,00 h 0,000 mm 0,0 UV-I 0 W/m -10,0 C -8,9 C 5,9 km/h (2 Bft) 98,73 %
19.01.2016 02:00 -10,3 C 91 % 1017,7 hPa 0,0 l/m 2,9 km/h (1 Bft) O-NO 0,00 h 0,000 mm 0,0 UV-I 0 W/m -11,4 C -10,3 C 5,1 km/h (1 Bft) 98,72 %
19.01.2016 03:00 -11,4 C 92 % 1017,4 hPa 0,0 l/m 1,4 km/h (1 Bft) S 0,00 h 0,000 mm 0,0 UV-I 0 W/m -12,4 C -11,4 C 3,2 km/h (1 Bft) 98,14 %
19.01.2016 04:00 -12,0 C 92 % 1017,4 hPa 0,0 l/m 1,4 km/h (1 Bft) S 0,00 h 0,000 mm 0,0 UV-I 0 W/m -13,0 C -12,0 C 2,5 km/h (1 Bft) 98,93 %
19.01.2016 05:00 -11,9 C 92 % 1017,5 hPa 0,0 l/m 2,3 km/h (1 Bft) S 0,00 h 0,000 mm 0,0 UV-I 0 W/m -12,9 C -11,9 C 4,4 km/h (1 Bft) 98,35 %
19.01.2016 06:00 -11,8 C 92 % 1017,5 hPa 0,0 l/m 0,9 km/h (0 Bft) S 0,00 h 0,000 mm 0,0 UV-I 0 W/m -12,8 C -11,8 C 2,0 km/h (1 Bft) 99,41 %
19.01.2016 07:00 -12,1 C 91 % 1017,7 hPa 0,0 l/m 0,9 km/h (0 Bft) SW 0,00 h 0,000 mm 0,0 UV-I 4 W/m -13,3 C -12,1 C 2,9 km/h (1 Bft) 98,22 %
19.01.2016 08:00 -11,4 C 92 % 1017,8 hPa 0,0 l/m 0,9 km/h (0 Bft) S-SW 0,08 h 0,000 mm 0,0 UV-I 45 W/m -12,5 C -11,4 C 2,7 km/h (1 Bft) 98,36 %
19.01.2016 09:00 -9,8 C 92 % 1018,0 hPa 0,0 l/m 1,7 km/h (1 Bft) N-NO 0,00 h 0,000 mm 0,0 UV-I 94 W/m -10,9 C -9,8 C 4,4 km/h (1 Bft) 98,28 %
19.01.2016 10:00 -8,9 C 93 % 1018,3 hPa 0,0 l/m 4,7 km/h (1 Bft) NO 0,17 h 0,025 mm 0,0 UV-I 136 W/m -9,9 C -8,9 C 7,4 km/h (2 Bft) 97,74 %
19.01.2016 11:00 -8,1 C 93 % 1018,4 hPa 0,0 l/m 5,1 km/h (1 Bft) NO 0,00 h 0,026 mm 0,0 UV-I 138 W/m -9,1 C -8,3 C 8,0 km/h (2 Bft) 98,65 %
19.01.2016 12:00 -7,5 C 90 % 1018,2 hPa 0,0 l/m 6,4 km/h (2 Bft) O-NO 0,00 h 0,025 mm 0,5 UV-I 143 W/m -8,8 C -8,1 C 11,3 km/h (2 Bft) 97,93 %
19.01.2016 13:00 -7,0 C 86 % 1017,8 hPa 0,0 l/m 5,1 km/h (1 Bft) NO 0,00 h 0,026 mm 0,0 UV-I 101 W/m -8,9 C -7,2 C 8,9 km/h (2 Bft) 98,91 %
19.01.2016 14:00 -6,7 C 85 % 1017,4 hPa 0,0 l/m 2,1 km/h (1 Bft) S-SO 0,00 h 0,025 mm 0,0 UV-I 78 W/m -8,8 C -6,7 C 5,5 km/h (1 Bft) 97,60 %
19.01.2016 15:00 -6,4 C 85 % 1017,4 hPa 0,0 l/m 1,7 km/h (1 Bft) N-NO 0,00 h 0,025 mm 0,0 UV-I 39 W/m -8,5 C -6,4 C 4,1 km/h (1 Bft) 99,00 %
19.01.2016 16:00 -6,3 C 85 % 1017,5 hPa 0,0 l/m 1,0 km/h (0 Bft) N-NO 0,00 h 0,000 mm 0,0 UV-I 10 W/m -8,4 C -6,3 C 2,8 km/h (1 Bft) 97,45 %
19.01.2016 17:00 -6,3 C 85 % 1017,5 hPa 0,0 l/m 1,6 km/h (1 Bft) O-NO 0,00 h 0,000 mm 0,0 UV-I 0 W/m -8,4 C -6,3 C 3,2 km/h (1 Bft) 98,86 %
19.01.2016 18:00 -6,3 C 86 % 1017,7 hPa 0,0 l/m 1,6 km/h (1 Bft) O-NO 0,00 h 0,000 mm 0,0 UV-I 0 W/m -8,3 C -6,3 C 3,9 km/h (1 Bft) 97,67 %
19.01.2016 19:00 -6,3 C 86 % 1017,8 hPa 0,0 l/m 1,8 km/h (1 Bft) O-NO 0,00 h 0,000 mm 0,0 UV-I 0 W/m -8,2 C -6,3 C 3,9 km/h (1 Bft) 99,23 %
19.01.2016 20:00 -6,3 C 87 % 1017,9 hPa 0,0 l/m 0,8 km/h (0 Bft) O-SO 0,00 h 0,000 mm 0,0 UV-I 0 W/m -8,2 C -6,3 C 2,4 km/h (1 Bft) 97,55 %
19.01.2016 21:00 -6,3 C 87 % 1018,0 hPa 0,0 l/m 0,6 km/h (0 Bft) O-SO 0,00 h 0,000 mm 0,0 UV-I 0 W/m -8,0 C -6,3 C 2,1 km/h (1 Bft) 99,14 %
19.01.2016 22:00 -6,1 C 88 % 1018,1 hPa 0,0 l/m 0,2 km/h (0 Bft) N 0,00 h 0,000 mm 0,0 UV-I 0 W/m -7,8 C -6,1 C 1,6 km/h (1 Bft) 97,28 %
19.01.2016 23:00 -6,1 C 88 % 1018,0 hPa 0,0 l/m 0,2 km/h (0 Bft) N 0,00 h 0,000 mm 0,0 UV-I 0 W/m -7,7 C -6,1 C 1,6 km/h (1 Bft) 98,79 %
20.01.2016 00:00 -5,9 C 89 % 1017,8 hPa 0,0 l/m 1,0 km/h (0 Bft) W 0,00 h 0,000 mm 0,0 UV-I 0 W/m -7,5 C -5,9 C 3,3 km/h (1 Bft) 97,75 %
20.01.2016 01:00 -5,8 C 88 % 1017,6 hPa 0,0 l/m 1,2 km/h (1 Bft) W-NW 0,00 h 0,000 mm 0,0 UV-I 0 W/m -7,5 C -5,8 C 3,6 km/h (1 Bft) 99,29 %
20.01.2016 02:00 -5,7 C 89 % 1017,9 hPa 0,0 l/m 2,4 km/h (1 Bft) W 0,00 h 0,000 mm 0,0 UV-I 0 W/m -7,3 C -5,7 C 5,2 km/h (1 Bft) 97,66 %
20.01.2016 03:00 -6,0 C 90 % 1017,8 hPa 0,0 l/m 2,8 km/h (1 Bft) S 0,00 h 0,000 mm 0,0 UV-I 0 W/m -7,4 C -6,0 C 5,3 km/h (1 Bft) 98,80 %
20.01.2016 04:00 -5,9 C 91 % 1017,9 hPa 0,0 l/m 0,9 km/h (0 Bft) S-SW 0,00 h 0,000 mm 0,0 UV-I 0 W/m -7,1 C -5,9 C 2,5 km/h (1 Bft) 97,96 %
20.01.2016 05:00 -5,9 C 91 % 1018,0 hPa 0,0 l/m 1,4 km/h (1 Bft) W-SW 0,00 h 0,000 mm 0,0 UV-I 0 W/m -7,1 C -5,9 C 3,6 km/h (1 Bft) 99,29 %
20.01.2016 06:00 -5,6 C 90 % 1018,3 hPa 0,0 l/m 2,2 km/h (1 Bft) SW 0,00 h 0,000 mm 0,0 UV-I 0 W/m -7,0 C -5,6 C 4,7 km/h (1 Bft) 97,93 %
20.01.2016 07:00 -5,4 C 89 % 1018,7 hPa 0,0 l/m 3,6 km/h (1 Bft) W-SW 0,00 h 0,000 mm 0,0 UV-I 5 W/m -6,9 C -5,4 C 7,1 km/h (2 Bft) 99,50 %
20.01.2016 08:00 -6,5 C 91 % 1019,3 hPa 0,0 l/m 2,6 km/h (1 Bft) W-SW 0,00 h 0,000 mm 0,0 UV-I 34 W/m -7,7 C -6,5 C 5,1 km/h (1 Bft) 97,95 %
20.01.2016 09:00 -5,7 C 90 % 1019,5 hPa 0,0 l/m 2,0 km/h (1 Bft) W-SW 0,75 h 0,000 mm 0,0 UV-I 150 W/m -7,0 C -5,7 C 4,4 km/h (1 Bft) 99,24 %
20.01.2016 10:00 -4,1 C 86 % 1019,8 hPa 0,0 l/m 1,3 km/h (1 Bft) W-NW 0,67 h 0,051 mm 0,3 UV-I 187 W/m -6,1 C -4,1 C 4,5 km/h (1 Bft) 98,79 %
20.01.2016 11:00 -3,5 C 84 % 1019,8 hPa 0,0 l/m 2,5 km/h (1 Bft) NW 1,00 h 0,051 mm 0,6 UV-I 334 W/m -5,9 C -3,5 C 6,4 km/h (2 Bft) 98,48 %
20.01.2016 12:00 -2,2 C 80 % 1019,4 hPa 0,0 l/m 2,5 km/h (1 Bft) W-NW 1,00 h 0,101 mm 0,7 UV-I 326 W/m -5,1 C -2,2 C 7,5 km/h (2 Bft) 98,71 %
20.01.2016 13:00 -0,9 C 77 % 1019,0 hPa 0,0 l/m 3,7 km/h (1 Bft) W 1,00 h 0,102 mm 0,6 UV-I 297 W/m -4,5 C -0,9 C 9,4 km/h (2 Bft) 99,07 %
20.01.2016 14:00 -1,1 C 79 % 1018,8 hPa 0,0 l/m 2,5 km/h (1 Bft) W-NW 0,75 h 0,102 mm 0,5 UV-I 195 W/m -4,3 C -1,1 C 6,3 km/h (2 Bft) 98,41 %
20.01.2016 15:00 -1,8 C 81 % 1018,9 hPa 0,0 l/m 2,9 km/h (1 Bft) W 0,25 h 0,076 mm 0,0 UV-I 82 W/m -4,6 C -1,8 C 9,1 km/h (2 Bft) 98,31 %
20.01.2016 16:00 -2,3 C 82 % 1019,1 hPa 0,0 l/m 2,8 km/h (1 Bft) W 0,42 h 0,025 mm 0,0 UV-I 23 W/m -5,0 C -2,3 C 7,5 km/h (2 Bft) 99,28 %
20.01.2016 17:00 -3,0 C 83 % 1019,4 hPa 0,0 l/m 4,4 km/h (1 Bft) W 0,00 h 0,000 mm 0,0 UV-I 0 W/m -5,4 C -3,1 C 9,9 km/h (2 Bft) 97,92 %
20.01.2016 18:00 -3,3 C 85 % 1019,4 hPa 0,0 l/m 4,4 km/h (1 Bft) W-NW 0,00 h 0,000 mm 0,0 UV-I 0 W/m -5,5 C -3,5 C 8,1 km/h (2 Bft) 99,13 %
20.01.2016 19:00 -3,7 C 86 % 1019,5 hPa 0,0 l/m 3,1 km/h (1 Bft) W 0,00 h 0,000 mm 0,0 UV-I 0 W/m -5,6 C -3,7 C 5,2 km/h (1 Bft) 97,99 %
20.01.2016 20:00 -4,0 C 89 % 1019,6 hPa 0,0 l/m 3,6 km/h (1 Bft) W 0,00 h 0,000 mm 0,0 UV-I 0 W/m -5,6 C -4,0 C 6,6 km/h (2 Bft) 99,14 %
20.01.2016 21:00 -3,4 C 88 % 1019,7 hPa 0,0 l/m 8,3 km/h (2 Bft) W-SW 0,00 h 0,000 mm 0,0 UV-I 0 W/m -5,2 C -5,6 C 13,0 km/h (3 Bft) 98,42 %
20.01.2016 22:00 -3,8 C 88 % 1019,9 hPa 0,0 l/m 5,3 km/h (1 Bft) W 0,00 h 0,000 mm 0,0 UV-I 0 W/m -5,4 C -4,2 C 9,8 km/h (2 Bft) 98,44 %
20.01.2016 23:00 -5,0 C 90 % 1020,3 hPa 0,0 l/m 1,4 km/h (1 Bft) N 0,00 h 0,000 mm 0,0 UV-I 0 W/m -6,3 C -5,0 C 4,0 km/h (1 Bft) 98,70 %
21.01.2016 00:00 -2,4 C 87 % 1020,1 hPa 0,0 l/m 14,1 km/h (3 Bft) SW 0,00 h 0,000 mm 0,0 UV-I 0 W/m -4,3 C -9,1 C 23,1 km/h (4 Bft) 97,88 %
21.01.2016 01:00 -1,6 C 85 % 1020,4 hPa 0,0 l/m 11,8 km/h (2 Bft) W-SW 0,00 h 0,025 mm 0,0 UV-I 0 W/m -3,8 C -6,5 C 19,0 km/h (3 Bft) 99,16 %
21.01.2016 02:00 -1,7 C 85 % 1020,8 hPa 0,0 l/m 7,3 km/h (2 Bft) W 0,00 h 0,000 mm 0,0 UV-I 0 W/m -3,9 C -3,1 C 12,9 km/h (3 Bft) 97,87 %
21.01.2016 03:00 -2,0 C 86 % 1021,2 hPa 0,0 l/m 8,7 km/h (2 Bft) W 0,00 h 0,000 mm 0,0 UV-I 0 W/m -3,9 C -4,3 C 15,7 km/h (3 Bft) 99,36 %
21.01.2016 04:00 -2,0 C 93 % 1021,7 hPa 0,0 l/m 11,7 km/h (2 Bft) W-SW 0,00 h 0,000 mm 0,0 UV-I 0 W/m -3,0 C -7,0 C 19,0 km/h (3 Bft) 97,79 %
21.01.2016 05:00 -2,1 C 94 % 1022,4 hPa 0,0 l/m 7,7 km/h (2 Bft) W 0,00 h 0,000 mm 0,0 UV-I 0 W/m -2,9 C -3,6 C 14,8 km/h (3 Bft) 99,30 %
21.01.2016 06:00 -2,0 C 93 % 1023,2 hPa 0,0 l/m 6,8 km/h (2 Bft) W 0,00 h 0,000 mm 0,0 UV-I 0 W/m -3,0 C -3,1 C 14,5 km/h (3 Bft) 97,73 %
21.01.2016 07:00 -2,0 C 92 % 1024,1 hPa 0,0 l/m 2,3 km/h (1 Bft) W-NW 0,00 h 0,000 mm 0,0 UV-I 0 W/m -3,1 C -2,0 C 6,1 km/h (2 Bft) 99,44 %
21.01.2016 08:00 -2,2 C 93 % 1025,1 hPa 0,0 l/m 0,7 km/h (0 Bft) W-NW 0,00 h 0,000 mm 0,0 UV-I 13 W/m -3,1 C -2,2 C 2,9 km/h (1 Bft) 97,81 %
21.01.2016 09:00 -2,2 C 94 % 1025,9 hPa 0,0 l/m 1,5 km/h (1 Bft) W 0,00 h 0,000 mm 0,0 UV-I 38 W/m -3,0 C -2,2 C 4,1 km/h (1 Bft) 99,36 %
21.01.2016 10:00 -2,0 C 92 % 1026,8 hPa 0,0 l/m 2,0 km/h (1 Bft) W-NW 0,17 h 0,000 mm 0,0 UV-I 82 W/m -3,1 C -2,0 C 5,7 km/h (1 Bft) 98,35 %
21.01.2016 11:00 -1,4 C 89 % 1027,2 hPa 0,0 l/m 3,3 km/h (1 Bft) W 0,25 h 0,026 mm 0,5 UV-I 182 W/m -2,9 C -1,4 C 8,3 km/h (2 Bft) 99,15 %
21.01.2016 12:00 -1,6 C 88 % 1027,4 hPa 0,4 l/m 1,7 km/h (1 Bft) W 0,08 h 0,051 mm 0,7 UV-I 147 W/m -3,4 C -1,6 C 5,6 km/h (1 Bft) 98,20 %
21.01.2016 13:00 -1,5 C 86 % 1027,5 hPa 0,2 l/m 4,0 km/h (1 Bft) W-SW 0,00 h 0,050 mm 0,6 UV-I 145 W/m -3,5 C -1,5 C 8,8 km/h (2 Bft) 98,27 %
21.01.2016 14:00 -1,6 C 86 % 1027,8 hPa 0,0 l/m 2,7 km/h (1 Bft) SW 0,42 h 0,051 mm 0,4 UV-I 147 W/m -3,7 C -1,6 C 5,1 km/h (1 Bft) 99,08 %
21.01.2016 15:00 -1,5 C 85 % 1028,0 hPa 0,0 l/m 1,7 km/h (1 Bft) W 0,50 h 0,051 mm 0,0 UV-I 86 W/m -3,7 C -1,5 C 3,8 km/h (1 Bft) 97,90 %
21.01.2016 16:00 -2,8 C 89 % 1028,4 hPa 0,0 l/m 0,8 km/h (0 Bft) W 0,17 h 0,025 mm 0,0 UV-I 18 W/m -4,3 C -2,8 C 2,1 km/h (1 Bft) 99,36 %
21.01.2016 17:00 -4,6 C 93 % 1028,9 hPa 0,0 l/m 1,4 km/h (1 Bft) S-SW 0,00 h 0,000 mm 0,0 UV-I 0 W/m -5,5 C -4,6 C 3,3 km/h (1 Bft) 98,04 %
21.01.2016 18:00 -6,2 C 94 % 1029,4 hPa 0,0 l/m 0,8 km/h (0 Bft) S-SW 0,00 h 0,000 mm 0,0 UV-I 0 W/m -6,9 C -6,2 C 2,5 km/h (1 Bft) 99,29 %
21.01.2016 19:00 -7,2 C 94 % 1029,8 hPa 0,0 l/m 1,1 km/h (1 Bft) S-SW 0,00 h 0,000 mm 0,0 UV-I 0 W/m -7,9 C -7,2 C 3,1 km/h (1 Bft) 97,04 %
21.01.2016 20:00 -7,9 C 94 % 1030,3 hPa 0,0 l/m 1,1 km/h (0 Bft) S-SW 0,00 h 0,000 mm 0,0 UV-I 0 W/m -8,7 C -7,9 C 2,4 km/h (1 Bft) 98,87 %
21.01.2016 21:00 -8,2 C 93 % 1030,8 hPa 0,0 l/m 3,0 km/h (1 Bft) NO 0,00 h 0,000 mm 0,0 UV-I 0 W/m -9,0 C -8,2 C 4,7 km/h (1 Bft) 98,76 %
21.01.2016 22:00 -8,7 C 94 % 1031,2 hPa 0,0 l/m 2,4 km/h (1 Bft) O-NO 0,00 h 0,000 mm 0,0 UV-I 0 W/m -9,5 C -8,7 C 5,8 km/h (1 Bft) 97,51 %
21.01.2016 23:00 -7,9 C 94 % 1031,5 hPa 0,0 l/m 4,6 km/h (1 Bft) NO 0,00 h 0,000 mm 0,0 UV-I 0 W/m -8,8 C -8,0 C 8,2 km/h (2 Bft) 99,07 %
22.01.2016 00:00 -8,1 C 93 % 1031,5 hPa 0,0 l/m 4,7 km/h (1 Bft) NO 0,00 h 0,000 mm 0,0 UV-I 0 W/m -9,0 C -8,1 C 7,2 km/h (2 Bft) 97,71 %
22.01.2016 01:00 -9,4 C 92 % 1031,4 hPa 0,0 l/m 2,9 km/h (1 Bft) O-NO 0,00 h 0,000 mm 0,0 UV-I 0 W/m -10,4 C -9,4 C 5,2 km/h (1 Bft) 99,13 %
22.01.2016 02:00 -10,9 C 91 % 1031,6 hPa 0,0 l/m 1,5 km/h (1 Bft) O-NO 0,00 h 0,000 mm 0,0 UV-I 0 W/m -12,0 C -10,9 C 3,1 km/h (1 Bft) 98,08 %
22.01.2016 03:00 -13,0 C 90 % 1031,7 hPa 0,0 l/m 1,4 km/h (1 Bft) S-SW 0,00 h 0,000 mm 0,0 UV-I 0 W/m -14,2 C -13,0 C 2,9 km/h (1 Bft) 98,06 %
22.01.2016 04:00 -13,8 C 90 % 1031,9 hPa 0,0 l/m 1,6 km/h (1 Bft) S 0,00 h 0,000 mm 0,0 UV-I 0 W/m -15,1 C -13,8 C 3,1 km/h (1 Bft) 99,08 %
22.01.2016 05:00 -13,5 C 91 % 1032,3 hPa 0,0 l/m 1,4 km/h (1 Bft) S-SW 0,00 h 0,000 mm 0,0 UV-I 0 W/m -14,6 C -13,5 C 2,7 km/h (1 Bft) 97,58 %
22.01.2016 06:00 -13,3 C 90 % 1032,7 hPa 0,0 l/m 0,1 km/h (0 Bft) N 0,00 h 0,000 mm 0,0 UV-I 0 W/m -14,5 C -13,3 C 1,1 km/h (0 Bft) 97,69 %
22.01.2016 07:00 -14,0 C 90 % 1033,2 hPa 0,0 l/m 0,5 km/h (0 Bft) N 0,00 h 0,000 mm 0,0 UV-I 5 W/m -15,2 C -14,0 C 1,6 km/h (1 Bft) 96,89 %
22.01.2016 08:00 -13,2 C 91 % 1033,9 hPa 0,0 l/m 0,6 km/h (0 Bft) N 0,00 h 0,000 mm 0,0 UV-I 35 W/m -14,4 C -13,2 C 1,9 km/h (1 Bft) 99,06 %
22.01.2016 09:00 -12,5 C 91 % 1034,3 hPa 0,0 l/m 0,6 km/h (0 Bft) S-SW 0,50 h 0,000 mm 0,0 UV-I 135 W/m -13,7 C -12,5 C 1,6 km/h (1 Bft) 98,71 %
22.01.2016 10:00 -10,7 C 92 % 1034,6 hPa 0,0 l/m 0,0 km/h (0 Bft) N 1,00 h 0,025 mm 0,6 UV-I 315 W/m -11,8 C -10,7 C 0,0 km/h (0 Bft) 98,66 %
22.01.2016 11:00 -8,7 C 93 % 1034,4 hPa 0,0 l/m 3,8 km/h (1 Bft) O-NO 1,00 h 0,051 mm 0,8 UV-I 368 W/m -9,7 C -9,0 C 6,8 km/h (2 Bft) 98,93 %
22.01.2016 12:00 -7,3 C 93 % 1033,9 hPa 0,0 l/m 8,6 km/h (2 Bft) O-NO 1,00 h 0,076 mm 0,9 UV-I 346 W/m -8,3 C -10,0 C 14,8 km/h (3 Bft) 98,93 %
22.01.2016 13:00 -5,6 C 87 % 1033,3 hPa 0,0 l/m 7,5 km/h (2 Bft) O-NO 1,00 h 0,077 mm 0,7 UV-I 332 W/m -7,4 C -6,9 C 12,8 km/h (3 Bft) 98,57 %
22.01.2016 14:00 -4,5 C 82 % 1033,1 hPa 0,0 l/m 10,2 km/h (2 Bft) O-NO 1,00 h 0,101 mm 0,5 UV-I 254 W/m -7,2 C -8,5 C 17,2 km/h (3 Bft) 98,56 %
22.01.2016 15:00 -4,4 C 78 % 1033,1 hPa 0,0 l/m 11,0 km/h (2 Bft) O-NO 1,00 h 0,076 mm 0,0 UV-I 120 W/m -7,6 C -9,0 C 17,7 km/h (3 Bft) 98,25 %
22.01.2016 16:00 -5,2 C 80 % 1032,9 hPa 0,0 l/m 6,6 km/h (2 Bft) O-NO 0,08 h 0,051 mm 0,0 UV-I 18 W/m -8,1 C -6,2 C 10,6 km/h (2 Bft) 99,43 %
22.01.2016 17:00 -6,4 C 83 % 1033,0 hPa 0,0 l/m 5,6 km/h (1 Bft) NO 0,00 h 0,026 mm 0,0 UV-I 0 W/m -8,9 C -6,7 C 9,0 km/h (2 Bft) 97,76 %
22.01.2016 18:00 -7,0 C 85 % 1033,1 hPa 0,0 l/m 8,4 km/h (2 Bft) O-NO 0,00 h 0,000 mm 0,0 UV-I 0 W/m -9,1 C -9,5 C 14,1 km/h (3 Bft) 99,79 %
22.01.2016 19:00 -7,4 C 86 % 1033,1 hPa 0,0 l/m 5,6 km/h (1 Bft) O-NO 0,00 h 0,000 mm 0,0 UV-I 0 W/m -9,3 C -7,5 C 9,5 km/h (2 Bft) 97,51 %
22.01.2016 20:00 -9,2 C 89 % 1033,0 hPa 0,0 l/m 1,4 km/h (1 Bft) O-NO 0,00 h 0,000 mm 0,0 UV-I 0 W/m -10,7 C -9,2 C 2,9 km/h (1 Bft) 98,40 %
22.01.2016 21:00 -11,4 C 91 % 1033,2 hPa 0,0 l/m 1,9 km/h (1 Bft) S 0,00 h 0,000 mm 0,0 UV-I 0 W/m -12,6 C -11,4 C 3,6 km/h (1 Bft) 97,99 %
22.01.2016 22:00 -12,1 C 92 % 1033,1 hPa 0,0 l/m 2,8 km/h (1 Bft) S-SW 0,00 h 0,000 mm 0,0 UV-I 0 W/m -13,2 C -12,1 C 4,5 km/h (1 Bft) 97,89 %
22.01.2016 23:00 -12,7 C 91 % 1032,9 hPa 0,0 l/m 2,6 km/h (1 Bft) S-SW 0,00 h 0,000 mm 0,0 UV-I 0 W/m -13,8 C -12,7 C 4,3 km/h (1 Bft) 99,23 %
23.01.2016 00:00 -12,7 C 91 % 1032,8 hPa 0,0 l/m 2,0 km/h (1 Bft) S-SW 0,00 h 0,000 mm 0,0 UV-I 0 W/m -13,9 C -12,7 C 3,6 km/h (1 Bft) 96,08 %
23.01.2016 01:00 -13,0 C 91 % 1032,5 hPa 0,0 l/m 2,4 km/h (1 Bft) S-SW 0,00 h 0,000 mm 0,0 UV-I 0 W/m -14,1 C -13,0 C 4,0 km/h (1 Bft) 99,36 %
23.01.2016 02:00 -13,0 C 91 % 1032,2 hPa 0,0 l/m 2,4 km/h (1 Bft) S-SW 0,00 h 0,000 mm 0,0 UV-I 0 W/m -14,2 C -13,0 C 3,9 km/h (1 Bft) 98,79 %
23.01.2016 03:00 -12,8 C 91 % 1031,6 hPa 0,0 l/m 1,8 km/h (1 Bft) S-SW 0,00 h 0,000 mm 0,0 UV-I 0 W/m -13,9 C -12,8 C 3,6 km/h (1 Bft) 98,07 %
23.01.2016 04:00 -12,2 C 91 % 1031,6 hPa 0,0 l/m 2,4 km/h (1 Bft) S-SW 0,00 h 0,000 mm 0,0 UV-I 0 W/m -13,4 C -12,2 C 4,1 km/h (1 Bft) 99,35 %
23.01.2016 05:00 -11,4 C 91 % 1031,9 hPa 0,0 l/m 3,0 km/h (1 Bft) S-SW 0,00 h 0,000 mm 0,0 UV-I 0 W/m -12,5 C -11,4 C 5,3 km/h (1 Bft) 97,96 %
23.01.2016 06:00 -10,3 C 92 % 1032,1 hPa 0,0 l/m 1,8 km/h (1 Bft) S 0,00 h 0,000 mm 0,0 UV-I 0 W/m -11,3 C -10,3 C 3,9 km/h (1 Bft) 99,30 %
23.01.2016 07:00 -9,5 C 92 % 1032,2 hPa 0,0 l/m 1,8 km/h (1 Bft) W 0,00 h 0,000 mm 0,0 UV-I 0 W/m -10,5 C -9,5 C 4,9 km/h (1 Bft) 98,08 %
23.01.2016 08:00 -8,8 C 93 % 1032,9 hPa 0,0 l/m 0,7 km/h (0 Bft) S-SO 0,00 h 0,000 mm 0,0 UV-I 10 W/m -9,8 C -8,8 C 2,7 km/h (1 Bft) 99,14 %
23.01.2016 09:00 -8,1 C 93 % 1033,1 hPa 0,0 l/m 1,1 km/h (1 Bft) W 0,00 h 0,000 mm 0,0 UV-I 15 W/m -9,0 C -8,1 C 3,1 km/h (1 Bft) 97,59 %
23.01.2016 10:00 -7,2 C 93 % 1033,5 hPa 0,0 l/m 1,8 km/h (1 Bft) W-NW 0,00 h 0,000 mm 0,0 UV-I 29 W/m -8,1 C -7,2 C 4,1 km/h (1 Bft) 99,50 %
23.01.2016 11:00 -6,4 C 94 % 1033,7 hPa 0,0 l/m 2,0 km/h (1 Bft) W-NW 0,00 h 0,000 mm 0,0 UV-I 35 W/m -7,3 C -6,4 C 5,9 km/h (2 Bft) 97,94 %
23.01.2016 12:00 -5,1 C 93 % 1033,9 hPa 0,0 l/m 6,8 km/h (2 Bft) W 0,00 h 0,000 mm 0,0 UV-I 33 W/m -6,0 C -6,3 C 11,9 km/h (2 Bft) 99,21 %
23.01.2016 13:00 -2,7 C 95 % 1033,9 hPa 0,0 l/m 8,7 km/h (2 Bft) W-SW 0,00 h 0,000 mm 0,0 UV-I 34 W/m -3,3 C -5,0 C 16,4 km/h (3 Bft) 97,99 %
23.01.2016 14:00 -0,9 C 95 % 1034,2 hPa 0,0 l/m 9,9 km/h (2 Bft) W 0,00 h 0,025 mm 0,0 UV-I 33 W/m -1,6 C -4,4 C 17,2 km/h (3 Bft) 99,29 %
23.01.2016 15:00 -0,4 C 95 % 1034,7 hPa 0,0 l/m 8,6 km/h (2 Bft) W 0,00 h 0,026 mm 0,0 UV-I 21 W/m -1,1 C -2,9 C 16,0 km/h (3 Bft) 97,82 %
23.01.2016 16:00 -0,4 C 96 % 1035,0 hPa 0,0 l/m 8,0 km/h (2 Bft) W 0,00 h 0,000 mm 0,0 UV-I 7 W/m -1,0 C -2,4 C 15,2 km/h (3 Bft) 99,65 %
23.01.2016 17:00 0,1 C 96 % 1035,8 hPa 0,0 l/m 6,4 km/h (2 Bft) W 0,00 h 0,000 mm 0,0 UV-I 0 W/m -0,4 C -0,4 C 11,2 km/h (2 Bft) 97,58 %
23.01.2016 18:00 0,8 C 97 % 1036,6 hPa 0,0 l/m 9,9 km/h (2 Bft) W-SW 0,00 h 0,000 mm 0,0 UV-I 0 W/m 0,3 C -2,3 C 15,4 km/h (3 Bft) 99,43 %
23.01.2016 19:00 2,6 C 96 % 1037,2 hPa 0,0 l/m 13,0 km/h (3 Bft) W-SW 0,00 h 0,000 mm 0,0 UV-I 0 W/m 1,9 C -2,6 C 21,3 km/h (4 Bft) 97,79 %
23.01.2016 20:00 2,7 C 94 % 1037,7 hPa 0,0 l/m 13,2 km/h (3 Bft) W-SW 0,00 h 0,000 mm 0,0 UV-I 0 W/m 1,9 C -2,6 C 21,6 km/h (4 Bft) 99,36 %
23.01.2016 21:00 2,9 C 93 % 1037,9 hPa 0,0 l/m 11,0 km/h (2 Bft) W-SW 0,00 h 0,000 mm 0,0 UV-I 0 W/m 1,9 C -0,9 C 18,4 km/h (3 Bft) 98,16 %
23.01.2016 22:00 2,9 C 92 % 1038,0 hPa 1,2 l/m 11,0 km/h (2 Bft) SW 0,00 h 0,000 mm 0,0 UV-I 0 W/m 1,8 C -0,9 C 18,1 km/h (3 Bft) 98,74 %
23.01.2016 23:00 2,9 C 93 % 1037,7 hPa 0,8 l/m 11,0 km/h (2 Bft) W-SW 0,00 h 0,000 mm 0,0 UV-I 0 W/m 1,9 C -0,9 C 18,3 km/h (3 Bft) 98,83 %
24.01.2016 00:00 2,6 C 94 % 1037,4 hPa 0,6 l/m 10,0 km/h (2 Bft) SW 0,00 h 0,000 mm 0,0 UV-I 0 W/m 1,7 C -0,5 C 16,5 km/h (3 Bft) 98,83 %
24.01.2016 01:00 2,5 C 95 % 1037,1 hPa 0,6 l/m 8,8 km/h (2 Bft) SW 0,00 h 0,000 mm 0,0 UV-I 0 W/m 1,7 C 0,2 C 14,9 km/h (3 Bft) 99,06 %
24.01.2016 02:00 2,6 C 94 % 1037,0 hPa 0,2 l/m 7,9 km/h (2 Bft) SW 0,00 h 0,000 mm 0,0 UV-I 0 W/m 1,7 C 1,2 C 13,4 km/h (3 Bft) 98,44 %
24.01.2016 03:00 2,5 C 94 % 1036,8 hPa 0,2 l/m 6,0 km/h (2 Bft) SW 0,00 h 0,000 mm 0,0 UV-I 0 W/m 1,5 C 2,4 C 9,9 km/h (2 Bft) 99,35 %
24.01.2016 04:00 2,3 C 94 % 1036,8 hPa 0,2 l/m 3,2 km/h (1 Bft) W 0,00 h 0,000 mm 0,0 UV-I 0 W/m 1,3 C 2,2 C 6,0 km/h (2 Bft) 97,72 %
24.01.2016 05:00 1,5 C 95 % 1036,5 hPa 0,0 l/m 2,8 km/h (1 Bft) S 0,00 h 0,000 mm 0,0 UV-I 0 W/m 0,8 C 1,5 C 5,2 km/h (1 Bft) 99,36 %
24.01.2016 06:00 1,6 C 95 % 1036,4 hPa 0,0 l/m 5,1 km/h (1 Bft) S-SW 0,00 h 0,000 mm 0,0 UV-I 0 W/m 0,9 C 1,6 C 7,9 km/h (2 Bft) 97,99 %
24.01.2016 07:00 1,5 C 94 % 1036,0 hPa 0,0 l/m 5,2 km/h (1 Bft) S-SW 0,00 h 0,000 mm 0,0 UV-I 8 W/m 0,7 C 1,4 C 8,9 km/h (2 Bft) 99,15 %
24.01.2016 08:00 0,6 C 96 % 1036,0 hPa 0,0 l/m 4,2 km/h (1 Bft) SW 0,00 h 0,000 mm 0,0 UV-I 35 W/m 0,0 C 0,6 C 6,5 km/h (2 Bft) 97,70 %
24.01.2016 09:00 0,8 C 96 % 1035,8 hPa 0,0 l/m 3,3 km/h (1 Bft) S-SW 0,42 h 0,025 mm 0,0 UV-I 149 W/m 0,2 C 0,8 C 6,4 km/h (2 Bft) 99,64 %
24.01.2016 10:00 2,8 C 91 % 1035,6 hPa 0,4 l/m 1,7 km/h (1 Bft) W 0,67 h 0,051 mm 0,5 UV-I 186 W/m 1,5 C 2,8 C 4,7 km/h (1 Bft) 97,78 %
24.01.2016 11:00 2,8 C 91 % 1035,3 hPa 0,0 l/m 0,5 km/h (0 Bft) N 0,00 h 0,076 mm 0,5 UV-I 132 W/m 1,4 C 2,8 C 2,5 km/h (1 Bft) 99,08 %
24.01.2016 12:00 2,6 C 92 % 1035,1 hPa 0,0 l/m 0,7 km/h (0 Bft) NW 0,00 h 0,051 mm 0,5 UV-I 126 W/m 1,5 C 2,6 C 3,1 km/h (1 Bft) 96,93 %
24.01.2016 13:00 2,8 C 92 % 1034,4 hPa 0,0 l/m 1,4 km/h (1 Bft) S-SO 0,17 h 0,051 mm 0,5 UV-I 155 W/m 1,6 C 2,8 C 4,1 km/h (1 Bft) 99,29 %
24.01.2016 14:00 3,2 C 91 % 1034,1 hPa 0,0 l/m 1,4 km/h (1 Bft) W-SW 0,17 h 0,051 mm 0,5 UV-I 127 W/m 1,8 C 3,2 C 4,3 km/h (1 Bft) 97,63 %
24.01.2016 15:00 3,0 C 91 % 1033,7 hPa 0,0 l/m 1,9 km/h (1 Bft) S 0,00 h 0,051 mm 0,0 UV-I 56 W/m 1,7 C 3,0 C 4,4 km/h (1 Bft) 99,29 %
24.01.2016 16:00 2,4 C 93 % 1033,7 hPa 0,0 l/m 2,0 km/h (1 Bft) SO 0,00 h 0,025 mm 0,0 UV-I 23 W/m 1,3 C 2,4 C 4,8 km/h (1 Bft) 97,86 %
24.01.2016 17:00 1,8 C 94 % 1033,7 hPa 0,0 l/m 3,5 km/h (1 Bft) S 0,00 h 0,000 mm 0,0 UV-I 0 W/m 1,0 C 1,8 C 5,7 km/h (1 Bft) 99,34 %
24.01.2016 18:00 1,5 C 95 % 1033,7 hPa 0,0 l/m 2,5 km/h (1 Bft) S-SW 0,00 h 0,000 mm 0,0 UV-I 0 W/m 0,7 C 1,5 C 5,1 km/h (1 Bft) 97,86 %
24.01.2016 19:00 1,4 C 95 % 1033,7 hPa 0,0 l/m 3,3 km/h (1 Bft) S-SW 0,00 h 0,000 mm 0,0 UV-I 0 W/m 0,7 C 1,4 C 6,3 km/h (2 Bft) 99,17 %
24.01.2016 20:00 1,3 C 96 % 1033,5 hPa 0,0 l/m 3,3 km/h (1 Bft) SW 0,00 h 0,000 mm 0,0 UV-I 0 W/m 0,6 C 1,3 C 5,7 km/h (1 Bft) 98,28 %
24.01.2016 21:00 1,4 C 95 % 1033,1 hPa 0,0 l/m 2,6 km/h (1 Bft) SW 0,00 h 0,000 mm 0,0 UV-I 0 W/m 0,7 C 1,4 C 5,1 km/h (1 Bft) 98,81 %
24.01.2016 22:00 1,5 C 95 % 1033,0 hPa 0,0 l/m 2,5 km/h (1 Bft) S-SW 0,00 h 0,000 mm 0,0 UV-I 0 W/m 0,8 C 1,5 C 5,1 km/h (1 Bft) 98,92 %
24.01.2016 23:00 1,5 C 95 % 1032,7 hPa 0,0 l/m 1,9 km/h (1 Bft) S-SO 0,00 h 0,000 mm 0,0 UV-I 0 W/m 0,8 C 1,5 C 4,5 km/h (1 Bft) 98,66 %
Min-Datum _ 22.01.16 20.01.16 19.01.16 - 19.01.16 - - - - - 22.01.16 22.01.16 19.01.16 23.01.16
_ Min-Zeit 04:30 13:20 15:35 - 03:20 - - - - - 04:30 04:30 03:20 00:25
Minimum _ -14,2 C 76 % 1017,1 hPa - 0,0 km/h (0 Bft) - - - - - -15,6 C -14,2 C 0,0 km/h (0 Bft) 80,17 %
Max-Datum _ 24.01.16 23.01.16 23.01.16 23.01.16 21.01.16 - 18.01.16 18.01.16 22.01.16 20.01.16 23.01.16 24.01.16 21.01.16 18.01.16
_ Max-Zeit 14:00 17:00 21:40 22:05 00:25 - 14:10 14:10 11:55 12:15 21:50 14:00 00:25 00:05
Maximum _ 3,3 C 97 % 1038,0 hPa 1,2 l/m 18,7 km/h
SW (3 Bft)
- 0,17 h 0,102 mm 0,9 UV-I 415 W/m 2,1 C 3,3 C 30,6 km/h
SW (5 Bft)
100,00 %
Durchschnitt _ -4,8 C 90 % 1026,6 hPa #5,0 l/m 4,0 km/h (1 Bft) W #22:15 h #2,362 mm 0,6 UV-I 118 W/m -6,2 C -5,5 C 7,5 km/h (2 Bft) 98,52 %